Time;durP1;ratioP1;P1;durP2;ratioP2;P2;SDS_P1;SDS_P2;PMS_P1;PMS_P2;Temp;Humidity;BMP_temperature;BMP_pressure;BME280_temperature;BME280_humidity;BME280_pressure;Samples;Min_cycle;Max_cycle;Signal;HPM_P1;HPM_P2
2022/02/14 00:01:36;;;;;;;8.55;4.05;;;9.10;99.90;;;;;;4928343;23;20421;-91
2022/02/14 00:12:27;;;;;;;12.75;4.60;;;9.10;99.90;;;;;;5015813;23;20052;-92
2022/02/14 00:15:19;;;;;;;8.88;4.30;;;9.10;99.90;;;;;;4957355;23;20079;-93
2022/02/14 00:18:55;;;;;;;8.13;3.50;;;9.20;99.90;;;;;;4955377;29;20062;-95
2022/02/14 00:21:30;;;;;;;7.53;3.33;;;9.20;99.90;;;;;;4959513;28;20144;-90
2022/02/14 00:23:56;;;;;;;11.63;4.10;;;9.20;99.90;;;;;;4956020;29;20292;-89
2022/02/14 00:26:25;;;;;;;7.82;3.40;;;9.20;99.90;;;;;;4954149;29;20060;-91
2022/02/14 00:28:52;;;;;;;8.88;3.72;;;9.30;99.90;;;;;;4993420;28;20029;-91
2022/02/14 00:31:29;;;;;;;7.57;3.60;;;9.30;99.90;;;;;;5035175;28;20045;-90
2022/02/14 00:33:58;;;;;;;8.25;3.00;;;9.30;99.90;;;;;;5037077;28;20036;-91
2022/02/14 00:36:41;;;;;;;8.73;3.42;;;9.40;99.90;;;;;;5032634;28;20068;-90
2022/02/14 00:39:10;;;;;;;9.30;3.63;;;9.50;99.90;;;;;;5031294;28;20060;-91
2022/02/14 00:41:48;;;;;;;12.40;4.50;;;9.50;99.90;;;;;;5048148;28;20029;-91
2022/02/14 00:44:14;;;;;;;8.25;3.30;;;9.50;99.90;;;;;;5031076;28;20033;-91
2022/02/14 00:46:43;;;;;;;6.03;3.40;;;9.60;99.90;;;;;;5030868;28;20025;-90
2022/02/14 00:49:09;;;;;;;8.20;3.60;;;9.60;99.90;;;;;;5031043;28;20038;-94
2022/02/14 00:51:37;;;;;;;8.00;3.65;;;9.60;99.90;;;;;;5030265;28;20039;-92
2022/02/14 00:54:04;;;;;;;9.55;3.30;;;9.70;99.90;;;;;;5029947;28;20037;-92
2022/02/14 00:56:35;;;;;;;9.10;3.72;;;9.80;99.90;;;;;;5013583;28;20057;-91
2022/02/14 00:59:01;;;;;;;9.07;3.25;;;9.80;99.90;;;;;;5028108;28;20069;-93
2022/02/14 01:01:31;;;;;;;7.85;3.38;;;9.80;99.90;;;;;;5030004;28;20030;-90
2022/02/14 01:03:57;;;;;;;7.53;3.47;;;9.80;99.90;;;;;;5048406;28;20021;-92
2022/02/14 01:06:47;;;;;;;7.72;3.45;;;9.80;99.90;;;;;;5033174;28;20044;-93
2022/02/14 02:58:19;;;;;;;6.72;2.53;;;9.70;99.90;;;;;;4992254;28;20164;-90
2022/02/14 03:00:58;;;;;;;6.55;2.67;;;9.70;99.90;;;;;;4961047;28;20039;-91
2022/02/14 03:03:42;;;;;;;7.07;2.55;;;9.80;99.90;;;;;;4994317;28;20038;-92
2022/02/14 03:06:18;;;;;;;7.65;2.47;;;9.70;99.90;;;;;;4976495;28;20058;-93
2022/02/14 03:08:50;;;;;;;7.07;2.80;;;9.70;99.90;;;;;;4992610;28;20392;-92
2022/02/14 04:22:30;;;;;;;8.88;2.30;;;10.70;99.90;;;;;;1782163;23;20025;-90
2022/02/14 04:24:58;;;;;;;4.20;1.77;;;10.80;99.90;;;;;;5002945;28;20050;-90
2022/02/14 04:27:25;;;;;;;7.40;2.05;;;10.80;99.90;;;;;;5027589;28;20051;-92
2022/02/14 04:29:56;;;;;;;5.72;2.13;;;10.70;99.90;;;;;;5010654;28;20029;-91
2022/02/14 05:50:14;;;;;;;3.55;1.60;;;10.90;99.90;;;;;;5057375;28;20548;-91
2022/02/14 05:52:42;;;;;;;4.80;1.67;;;11.00;99.90;;;;;;5047310;28;20043;-93
2022/02/14 05:55:08;;;;;;;4.50;1.60;;;11.00;99.90;;;;;;5067086;28;20021;-94
2022/02/14 05:57:36;;;;;;;4.75;1.90;;;11.00;99.90;;;;;;5050824;28;20041;-93
2022/02/14 06:00:07;;;;;;;7.10;1.52;;;10.90;99.90;;;;;;5067926;28;20490;-93
2022/02/14 06:02:33;;;;;;;6.43;1.58;;;11.00;99.90;;;;;;5048468;28;20028;-91
2022/02/14 06:04:58;;;;;;;6.65;1.80;;;11.00;99.90;;;;;;5033786;28;20022;-93
2022/02/14 06:07:24;;;;;;;4.97;1.65;;;10.90;99.90;;;;;;5025952;28;20033;-92
2022/02/14 06:09:50;;;;;;;7.22;1.42;;;11.00;99.90;;;;;;5019615;28;20483;-92
2022/02/14 06:12:17;;;;;;;6.03;1.80;;;10.90;99.90;;;;;;5018006;28;20033;-91
2022/02/14 06:14:46;;;;;;;3.30;1.40;;;11.00;99.90;;;;;;5027791;28;20034;-91
2022/02/14 06:17:14;;;;;;;3.20;1.45;;;10.90;99.90;;;;;;5048193;28;20792;-93
2022/02/14 07:04:36;;;;;;;3.67;1.20;;;10.80;99.90;;;;;;5051769;28;20049;-90
2022/02/14 07:07:02;;;;;;;3.70;1.40;;;10.80;99.90;;;;;;5049146;23;20056;-91
2022/02/14 07:09:30;;;;;;;4.65;1.95;;;10.80;99.90;;;;;;4992671;28;20042;-91
2022/02/14 07:11:59;;;;;;;7.60;1.73;;;10.80;99.90;;;;;;4990557;28;20058;-92
2022/02/14 07:14:24;;;;;;;5.88;1.60;;;10.90;99.90;;;;;;4991211;28;20026;-92
2022/02/14 07:16:56;;;;;;;5.57;1.63;;;11.00;99.90;;;;;;5008874;28;20063;-93
2022/02/14 07:19:23;;;;;;;3.85;1.50;;;11.00;99.90;;;;;;5010632;28;20046;-93
2022/02/14 07:21:50;;;;;;;4.88;1.42;;;10.90;99.90;;;;;;4993171;28;20035;-92
2022/02/14 07:24:15;;;;;;;4.32;1.83;;;11.00;99.90;;;;;;4975754;28;20121;-89
2022/02/14 07:26:43;;;;;;;5.50;1.67;;;11.00;99.90;;;;;;4978955;28;20034;-89
2022/02/14 07:29:10;;;;;;;4.53;1.85;;;11.00;99.90;;;;;;4996170;28;20042;-91
2022/02/14 07:31:36;;;;;;;5.00;1.88;;;11.00;99.90;;;;;;5014519;28;20034;-90
2022/02/14 07:34:02;;;;;;;4.75;1.50;;;11.00;99.90;;;;;;4977463;28;20396;-94
2022/02/14 07:36:29;;;;;;;4.53;1.55;;;11.10;99.90;;;;;;4992987;28;20058;-95
2022/02/14 07:39:00;;;;;;;7.32;1.98;;;11.00;99.90;;;;;;4997663;28;20053;-92
2022/02/14 07:41:26;;;;;;;5.60;1.80;;;11.00;99.90;;;;;;4996609;28;20045;-92
2022/02/14 07:43:52;;;;;;;3.95;1.25;;;11.00;99.90;;;;;;4988256;28;20439;-94
2022/02/14 07:46:21;;;;;;;3.75;1.55;;;11.00;99.90;;;;;;5005438;28;20038;-93
2022/02/14 07:48:47;;;;;;;4.18;1.55;;;11.00;99.90;;;;;;5033850;23;20069;-92
2022/02/14 07:51:15;;;;;;;5.30;1.75;;;11.00;99.90;;;;;;5033101;28;20064;-93
2022/02/14 07:53:44;;;;;;;3.47;1.67;;;11.00;99.90;;;;;;5048286;28;20035;-93
2022/02/14 07:56:12;;;;;;;4.50;1.63;;;11.00;99.90;;;;;;5011057;28;20044;-93
2022/02/14 07:58:50;;;;;;;3.25;1.42;;;11.00;99.90;;;;;;5011006;28;20038;-94
2022/02/14 08:01:18;;;;;;;3.75;1.45;;;11.00;99.90;;;;;;5037906;28;20037;-94
2022/02/14 08:03:44;;;;;;;4.57;1.70;;;11.00;99.90;;;;;;5030400;28;20033;-94
2022/02/14 08:06:11;;;;;;;4.85;1.50;;;11.10;99.90;;;;;;5031069;28;20029;-94
2022/02/14 08:08:38;;;;;;;3.75;1.83;;;11.10;99.90;;;;;;5048611;28;20036;-93
2022/02/14 08:11:10;;;;;;;4.35;1.58;;;11.10;99.90;;;;;;5034856;28;20033;-94
2022/02/14 08:13:37;;;;;;;6.95;1.70;;;11.10;99.90;;;;;;5032997;28;20057;-92
2022/02/14 08:16:06;;;;;;;2.28;0.85;;;11.20;99.90;;;;;;5032939;28;20167;-93
2022/02/14 08:18:33;;;;;;;0.82;0.52;;;10.80;99.90;;;;;;5049857;28;20546;-93
2022/02/14 08:21:01;;;;;;;2.45;0.60;;;10.20;99.90;;;;;;5058610;28;20037;-93
2022/02/14 08:23:26;;;;;;;1.95;0.85;;;9.50;99.90;;;;;;5037747;28;20108;-92
2022/02/14 08:25:52;;;;;;;1.92;1.13;;;9.10;99.90;;;;;;5025688;28;20057;-93
2022/02/14 08:28:18;;;;;;;2.03;1.10;;;9.00;99.90;;;;;;5025653;28;20052;-92
2022/02/14 08:30:44;;;;;;;1.58;0.80;;;8.80;99.90;;;;;;5012767;28;20106;-94
2022/02/14 08:33:11;;;;;;;2.33;0.95;;;8.70;99.90;;;;;;5045586;28;20033;-93
2022/02/14 08:35:38;;;;;;;2.33;0.90;;;8.60;99.90;;;;;;5026814;28;20038;-93
2022/02/14 08:38:04;;;;;;;2.08;0.93;;;8.50;99.90;;;;;;5022759;28;20047;-92
2022/02/14 08:40:30;;;;;;;1.50;0.80;;;8.50;99.90;;;;;;5023750;28;20116;-93
2022/02/14 08:42:58;;;;;;;1.30;0.80;;;8.40;99.90;;;;;;5041930;28;20032;-92
2022/02/14 08:45:24;;;;;;;1.85;0.70;;;8.40;99.90;;;;;;5041147;28;20025;-92
2022/02/14 08:47:50;;;;;;;1.23;0.73;;;8.40;99.90;;;;;;5006967;28;20097;-94
2022/02/14 08:50:16;;;;;;;1.75;0.70;;;8.40;99.90;;;;;;5022569;28;20026;-93
2022/02/14 08:52:42;;;;;;;1.27;0.70;;;8.40;99.90;;;;;;5040432;28;20490;-92
2022/02/14 08:55:11;;;;;;;1.08;0.55;;;8.40;99.90;;;;;;5028557;28;20025;-93
2022/02/14 08:57:37;;;;;;;1.38;0.70;;;8.50;99.90;;;;;;5020660;28;20041;-90
2022/02/14 09:00:06;;;;;;;2.88;0.85;;;8.60;99.90;;;;;;5023095;28;20114;-91
2022/02/14 09:02:32;;;;;;;1.85;0.80;;;8.70;99.90;;;;;;5034350;28;20021;-93
2022/02/14 09:04:57;;;;;;;2.30;0.80;;;8.80;99.90;;;;;;5023960;28;20080;-93
2022/02/14 09:07:23;;;;;;;1.70;0.95;;;8.80;99.90;;;;;;5023207;28;20033;-93
2022/02/14 09:10:00;;;;;;;2.38;0.60;;;8.80;99.90;;;;;;5035018;28;20394;-93
2022/02/14 09:12:27;;;;;;;1.45;0.57;;;8.80;99.90;;;;;;5048014;28;20026;-92
2022/02/14 09:14:54;;;;;;;4.25;1.42;;;8.70;99.90;;;;;;5052090;28;20037;-93
2022/02/14 09:17:28;;;;;;;2.15;0.70;;;8.70;99.90;;;;;;5037263;28;20076;-94
2022/02/14 09:19:59;;;;;;;2.15;0.75;;;8.70;99.90;;;;;;5032800;28;20057;-93
2022/02/14 09:22:25;;;;;;;1.30;0.70;;;8.70;99.90;;;;;;5028365;28;20475;-92
2022/02/14 09:24:51;;;;;;;0.47;0.40;;;8.70;99.90;;;;;;5033762;28;20047;-92
2022/02/14 09:27:16;;;;;;;2.03;0.47;;;8.90;99.90;;;;;;5029456;28;20037;-92
2022/02/14 09:29:44;;;;;;;4.78;0.88;;;9.30;99.90;;;;;;5026555;28;20053;-93
2022/02/14 09:32:13;;;;;;;1.88;0.60;;;9.60;99.90;;;;;;5040319;28;20097;-93
2022/02/14 09:34:38;;;;;;;2.28;0.40;;;9.60;99.90;;;;;;5046294;28;20041;-93
2022/02/14 09:37:04;;;;;;;0.82;0.47;;;9.50;99.90;;;;;;5040360;28;20368;-91
2022/02/14 09:39:31;;;;;;;1.80;0.50;;;9.40;99.90;;;;;;5042601;28;20033;-91
2022/02/14 09:42:01;;;;;;;0.95;0.38;;;9.60;99.90;;;;;;5033400;28;20025;-92
2022/02/14 09:44:31;;;;;;;1.80;0.80;;;10.00;99.90;;;;;;5041135;28;20039;-94
2022/02/14 09:46:57;;;;;;;1.40;0.80;;;11.00;99.90;;;;;;5030689;28;20028;-91
2022/02/14 09:49:25;;;;;;;1.85;0.88;;;12.20;99.90;;;;;;5021350;28;20092;-95
2022/02/14 09:51:56;;;;;;;3.47;1.30;;;13.40;99.90;;;;;;5031463;28;20083;-91
2022/02/14 09:54:23;;;;;;;3.00;1.30;;;14.00;99.90;;;;;;5041286;28;20029;-92
2022/02/14 09:56:49;;;;;;;2.50;1.50;;;14.50;99.90;;;;;;5028543;28;20033;-95
2022/02/14 09:59:16;;;;;;;2.67;1.95;;;15.00;99.90;;;;;;5003053;28;20038;-94
2022/02/14 10:01:44;;;;;;;3.75;1.80;;;15.40;99.90;;;;;;5019416;28;20036;-94
2022/02/14 10:04:10;;;;;;;2.63;1.80;;;15.90;99.90;;;;;;5020879;28;20025;-94
2022/02/14 10:06:40;;;;;;;3.45;2.20;;;15.90;99.90;;;;;;5020433;28;20025;-93
2022/02/14 10:09:06;;;;;;;5.18;1.92;;;15.80;99.90;;;;;;5038133;28;20069;-93
2022/02/14 10:11:34;;;;;;;4.80;1.98;;;15.80;99.90;;;;;;5044764;28;20044;-91
2022/02/14 10:14:14;;;;;;;5.13;2.30;;;15.70;99.90;;;;;;5019535;28;20084;-91
2022/02/14 10:16:56;;;;;;;3.25;2.20;;;15.30;99.90;;;;;;5018544;28;20025;-92
2022/02/14 10:19:22;;;;;;;4.13;2.43;;;15.10;99.90;;;;;;5029207;28;20038;-89
2022/02/14 10:21:49;;;;;;;2.97;2.30;;;14.70;99.90;;;;;;5026868;28;20036;-90
2022/02/14 10:24:17;;;;;;;3.00;2.60;;;14.50;99.90;;;;;;5019268;28;20048;-92
2022/02/14 10:26:49;;;;;;;4.53;2.90;;;14.10;99.90;;;;;;5018155;28;20119;-92
2022/02/14 10:29:21;;;;;;;4.07;2.38;;;14.20;99.90;;;;;;5018518;28;20041;-91
2022/02/14 10:31:58;;;;;;;5.35;2.60;;;13.90;99.90;;;;;;5026628;28;20040;-92
2022/02/14 10:34:40;;;;;;;4.32;2.22;;;13.40;99.90;;;;;;5039842;28;20132;-91
2022/02/14 10:37:09;;;;;;;4.55;2.55;;;14.00;99.90;;;;;;5044128;28;20045;-93
2022/02/14 10:39:43;;;;;;;2.97;2.40;;;14.70;99.90;;;;;;5035762;28;20040;-91
2022/02/14 10:42:11;;;;;;;5.10;2.33;;;15.00;99.90;;;;;;5033622;28;20421;-91
2022/02/14 10:47:30;;;;;;;5.13;2.15;;;15.70;99.90;;;;;;5043874;28;20398;-93
2022/02/14 10:50:01;;;;;;;2.33;1.95;;;15.80;99.90;;;;;;5018772;28;20152;-92
2022/02/14 10:52:38;;;;;;;4.15;2.13;;;15.60;99.90;;;;;;5019244;28;20655;-91
2022/02/14 10:55:07;;;;;;;3.53;1.92;;;15.40;99.90;;;;;;5025977;28;20462;-93
2022/02/14 10:57:37;;;;;;;5.00;2.55;;;14.70;99.90;;;;;;5022386;28;20047;-93
2022/02/14 11:00:16;;;;;;;4.18;2.17;;;13.80;99.90;;;;;;5017188;28;20029;-91
2022/02/14 11:02:46;;;;;;;3.13;2.03;;;13.40;99.90;;;;;;5009722;28;20018;-92
2022/02/14 11:05:13;;;;;;;4.28;2.60;;;13.20;99.90;;;;;;5036739;28;20493;-92
2022/02/14 11:07:41;;;;;;;3.15;2.55;;;12.80;99.90;;;;;;5021775;28;20033;-89
2022/02/14 11:10:12;;;;;;;3.72;2.38;;;12.40;99.90;;;;;;5020681;28;20036;-92
2022/02/14 11:12:40;;;;;;;5.03;2.47;;;12.10;99.90;;;;;;5020549;28;20064;-91
2022/02/14 11:15:09;;;;;;;3.95;2.40;;;11.80;99.90;;;;;;5028238;28;20029;-92
2022/02/14 11:17:41;;;;;;;3.58;2.67;;;11.60;99.90;;;;;;5025881;28;20034;-93
2022/02/14 11:20:08;;;;;;;3.88;2.60;;;11.60;99.90;;;;;;5002386;28;20037;-91
2022/02/14 11:22:37;;;;;;;4.82;2.38;;;12.70;99.90;;;;;;5018351;28;20083;-90
2022/02/14 11:25:20;;;;;;;4.95;2.55;;;13.10;99.90;;;;;;5026788;28;20052;-92
2022/02/14 11:28:15;;;;;;;5.15;2.35;;;12.80;99.90;;;;;;5028250;28;20029;-92
2022/02/14 11:31:04;;;;;;;4.53;2.65;;;12.70;99.90;;;;;;5027451;28;20030;-91
2022/02/14 11:33:37;;;;;;;6.85;2.92;;;12.80;99.90;;;;;;5021852;28;20034;-96
2022/02/14 11:36:08;;;;;;;4.13;2.40;;;12.80;99.90;;;;;;5025292;28;20071;-93
2022/02/14 11:39:01;;;;;;;3.03;2.03;;;12.80;99.90;;;;;;5024097;28;20335;-94
2022/02/14 11:41:36;;;;;;;4.15;2.10;;;12.60;99.90;;;;;;5024086;28;20160;-96
2022/02/14 11:44:21;;;;;;;4.88;2.22;;;12.40;99.90;;;;;;5022868;28;20372;-92
2022/02/14 11:46:57;;;;;;;5.03;2.55;;;12.20;99.90;;;;;;5029194;28;20034;-95
2022/02/14 11:49:47;;;;;;;4.95;1.73;;;12.20;99.90;;;;;;5027546;28;20049;-90
2022/02/14 11:52:34;;;;;;;5.15;2.38;;;12.20;99.90;;;;;;5029208;28;20049;-91
2022/02/14 11:55:04;;;;;;;3.75;2.30;;;12.10;99.90;;;;;;5032386;28;20029;-91
2022/02/14 11:57:48;;;;;;;3.53;2.00;;;11.90;99.90;;;;;;5029517;28;20047;-91
2022/02/14 12:00:14;;;;;;;;;;;12.40;99.90;;;;;;5027176;28;20069;-90
2022/02/14 12:03:04;;;;;;;5.40;2.22;;;13.80;99.90;;;;;;5029392;28;19943;-89
2022/02/14 12:05:41;;;;;;;3.63;1.55;;;15.10;99.90;;;;;;5052685;28;20502;-88
2022/02/14 12:08:07;;;;;;;3.45;1.20;;;15.80;99.90;;;;;;5021469;28;20094;-91
2022/02/14 12:10:55;;;;;;;4.68;1.40;;;16.00;99.90;;;;;;5039469;28;20033;-92
2022/02/14 12:13:26;;;;;;;3.75;1.20;;;16.50;99.90;;;;;;5017029;28;20491;-91
2022/02/14 12:21:31;;;;;;;4.55;1.20;;;16.80;99.90;;;;;;5059222;28;20052;-91
2022/02/14 12:24:10;;;;;;;4.47;1.40;;;15.50;99.90;;;;;;5024344;28;20487;-90
2022/02/14 12:26:35;;;;;;;6.00;1.17;;;15.20;99.90;;;;;;5032672;28;20040;-91
2022/02/14 12:31:52;;;;;;;2.80;1.23;;;13.70;99.90;;;;;;5040986;28;20040;-90
2022/02/14 12:34:23;;;;;;;5.20;1.83;;;13.00;99.90;;;;;;5022427;28;20045;-92
2022/02/14 12:36:53;;;;;;;6.55;1.73;;;12.50;99.90;;;;;;5048181;28;20029;-90
2022/02/14 12:39:34;;;;;;;4.97;2.15;;;12.10;99.90;;;;;;5020613;28;20037;-89
2022/02/14 12:42:10;;;;;;;3.83;1.27;;;11.80;99.90;;;;;;5039163;28;20028;-90
2022/02/14 12:44:36;;;;;;;4.07;1.50;;;11.50;99.90;;;;;;5044473;28;20079;-93
2022/02/14 12:47:03;;;;;;;6.90;1.15;;;11.40;99.90;;;;;;5052137;28;20057;-88
2022/02/14 12:49:29;;;;;;;2.92;1.45;;;12.20;99.90;;;;;;5026670;28;20050;-87
2022/02/14 12:52:17;;;;;;;4.68;1.20;;;12.90;99.90;;;;;;5009420;28;20030;-86
2022/02/14 12:54:54;;;;;;;3.33;0.60;;;13.10;99.90;;;;;;5009643;28;20061;-90
2022/02/14 12:57:48;;;;;;;2.65;0.80;;;13.70;99.90;;;;;;5008947;28;20068;-91
2022/02/14 13:00:29;;;;;;;2.50;0.60;;;13.40;99.90;;;;;;4990852;28;20114;-89
2022/02/14 13:02:57;;;;;;;3.38;0.90;;;13.00;99.90;;;;;;5006610;28;20504;-94
2022/02/14 13:05:47;;;;;;;3.05;0.60;;;13.70;99.90;;;;;;4990486;28;20022;-88
2022/02/14 13:08:25;;;;;;;3.20;0.75;;;13.80;99.90;;;;;;5002645;28;20042;-88
2022/02/14 13:11:07;;;;;;;5.47;0.77;;;13.40;99.90;;;;;;4989091;28;20514;-87
2022/02/14 13:13:48;;;;;;;2.33;0.70;;;13.30;99.90;;;;;;5006999;28;20044;-87
2022/02/14 13:16:15;;;;;;;8.57;1.00;;;13.40;99.90;;;;;;5019073;28;20030;-86
2022/02/14 13:18:41;;;;;;;3.33;1.02;;;13.00;99.90;;;;;;5027558;28;20057;-87
2022/02/14 13:21:08;;;;;;;7.75;1.35;;;12.70;99.90;;;;;;5023850;28;20025;-91
2022/02/14 13:23:37;;;;;;;4.30;0.90;;;12.40;99.90;;;;;;5005356;28;20069;-87
2022/02/14 13:26:04;;;;;;;3.67;0.73;;;12.70;99.90;;;;;;5036420;28;20042;-87
2022/02/14 13:28:30;;;;;;;5.43;0.80;;;13.10;99.90;;;;;;5043823;28;20108;-90
2022/02/14 13:31:24;;;;;;;3.00;0.70;;;13.60;99.90;;;;;;5016370;28;20060;-89
2022/02/14 13:33:55;;;;;;;2.80;0.80;;;13.90;99.90;;;;;;5043084;28;20023;-87
2022/02/14 13:36:22;;;;;;;3.38;0.90;;;13.70;99.90;;;;;;5031683;28;20073;-87
2022/02/14 13:38:54;;;;;;;7.10;0.85;;;13.20;99.90;;;;;;5008680;28;20106;-86
2022/02/14 13:41:28;;;;;;;3.58;0.90;;;12.60;99.90;;;;;;5024653;23;20502;-90
2022/02/14 13:43:55;;;;;;;4.15;0.82;;;12.20;99.90;;;;;;4996402;28;20431;-92
2022/02/14 13:46:29;;;;;;;4.50;1.27;;;12.00;99.90;;;;;;4999575;28;20034;-89
2022/02/14 13:48:55;;;;;;;3.80;0.95;;;11.80;99.90;;;;;;5008393;28;20026;-91
2022/02/14 13:51:25;;;;;;;4.35;1.10;;;11.60;99.90;;;;;;5002374;28;20097;-91
2022/02/14 13:54:01;;;;;;;4.35;1.27;;;11.50;99.90;;;;;;5016774;28;20121;-92
2022/02/14 13:56:46;;;;;;;5.97;1.40;;;11.50;99.90;;;;;;5006021;28;20113;-88
2022/02/14 13:59:17;;;;;;;4.97;1.40;;;11.70;99.90;;;;;;5010440;28;20045;-91
2022/02/14 14:01:44;;;;;;;2.95;1.17;;;11.70;99.90;;;;;;5003169;28;20106;-90
2022/02/14 14:04:19;;;;;;;5.22;1.35;;;11.80;99.90;;;;;;5004298;28;20026;-87
2022/02/14 14:06:45;;;;;;;2.90;1.30;;;11.80;99.90;;;;;;5020833;28;20048;-91
2022/02/14 14:09:21;;;;;;;4.65;1.05;;;11.70;99.90;;;;;;5018105;28;20042;-89
2022/02/14 14:11:48;;;;;;;2.20;0.80;;;12.40;99.90;;;;;;4987539;28;20196;-90
2022/02/14 14:14:36;;;;;;;3.13;0.73;;;13.30;99.90;;;;;;5286563;23;20017;-91
2022/02/14 14:17:13;;;;;;;2.65;0.82;;;14.00;99.90;;;;;;5022262;28;20038;-92
2022/02/14 14:19:56;;;;;;;5.15;0.77;;;14.20;99.90;;;;;;4998757;28;20045;-90
2022/02/14 14:22:25;;;;;;;;;;;13.80;99.90;;;;;;4997959;28;20030;-90
2022/02/14 14:24:59;;;;;;;3.17;0.82;;;13.30;99.90;;;;;;5003873;28;19928;-92
2022/02/14 14:27:27;;;;;;;2.90;0.93;;;12.90;99.90;;;;;;5001746;28;20048;-88
2022/02/14 14:29:53;;;;;;;2.55;0.90;;;12.50;99.90;;;;;;5011912;28;20053;-90
2022/02/14 14:32:20;;;;;;;3.38;1.25;;;12.30;99.90;;;;;;5012177;28;20037;-88
2022/02/14 14:37:22;;;;;;;4.50;1.20;;;11.90;99.90;;;;;;5048387;28;20083;-88
2022/02/14 14:39:48;;;;;;;3.90;1.23;;;11.80;99.90;;;;;;5040768;28;20040;-88
2022/02/14 14:44:44;;;;;;;3.67;1.00;;;11.50;99.90;;;;;;5053950;28;20045;-87
2022/02/14 14:47:10;;;;;;;3.40;1.00;;;11.40;99.90;;;;;;5028162;28;20095;-88
2022/02/14 14:49:36;;;;;;;6.25;1.25;;;11.40;99.90;;;;;;5048677;28;20077;-88
2022/02/14 14:52:02;;;;;;;5.38;1.20;;;11.30;99.90;;;;;;5047667;28;20068;-91
2022/02/14 14:54:32;;;;;;;5.32;1.08;;;11.30;99.90;;;;;;5154560;23;20038;-91
2022/02/14 14:57:00;;;;;;;6.50;1.70;;;11.30;99.90;;;;;;5032094;28;20045;-89
2022/02/14 14:59:27;;;;;;;5.63;1.13;;;11.20;99.90;;;;;;5033554;28;20060;-90
2022/02/14 15:01:53;;;;;;;7.85;1.27;;;11.10;99.90;;;;;;5019555;28;20030;-88
2022/02/14 15:04:19;;;;;;;4.28;1.10;;;10.90;99.90;;;;;;5022806;28;20041;-89
2022/02/14 15:06:46;;;;;;;5.80;1.45;;;10.70;99.90;;;;;;5025480;28;20029;-88
2022/02/14 15:09:13;;;;;;;6.57;1.40;;;10.50;99.90;;;;;;5035177;28;20109;-87
2022/02/14 15:11:41;;;;;;;8.63;1.67;;;10.30;99.90;;;;;;5035363;28;20037;-87
2022/02/14 15:14:07;;;;;;;6.82;1.50;;;10.20;99.90;;;;;;5025341;28;20036;-90
2022/02/14 15:16:36;;;;;;;5.20;1.58;;;10.00;99.90;;;;;;5005744;28;20056;-89
2022/02/14 15:19:04;;;;;;;8.57;1.80;;;10.00;99.90;;;;;;5018996;28;20755;-87
2022/02/14 15:21:29;;;;;;;5.05;1.20;;;10.00;99.90;;;;;;5041564;28;20025;-87
2022/02/14 15:23:55;;;;;;;6.05;1.38;;;9.90;99.90;;;;;;5041922;28;20040;-89
2022/02/14 15:26:21;;;;;;;4.28;1.00;;;9.80;99.90;;;;;;5044786;28;20099;-87
2022/02/14 15:28:48;;;;;;;8.43;1.50;;;9.80;99.90;;;;;;5034726;28;20033;-89
2022/02/14 15:31:15;;;;;;;7.90;1.40;;;9.70;99.90;;;;;;5047929;28;20038;-88
2022/02/14 15:33:41;;;;;;;6.43;1.42;;;9.70;99.90;;;;;;5030321;28;20037;-91
2022/02/14 15:36:08;;;;;;;4.20;1.85;;;9.60;99.90;;;;;;5028842;28;20025;-88
2022/02/14 15:38:35;;;;;;;3.35;0.95;;;9.60;99.90;;;;;;5048175;28;20052;-87
2022/02/14 15:41:01;;;;;;;5.20;1.30;;;9.50;99.90;;;;;;5048039;28;20034;-87
2022/02/14 15:43:34;;;;;;;3.13;1.20;;;9.50;99.90;;;;;;5046726;28;20079;-90
2022/02/14 15:46:00;;;;;;;3.75;1.17;;;9.50;99.90;;;;;;5029384;28;20029;-90
2022/02/14 15:48:26;;;;;;;6.63;1.40;;;9.60;99.90;;;;;;5029875;28;20044;-92
2022/02/14 15:50:52;;;;;;;6.95;2.15;;;9.60;99.90;;;;;;5033029;28;20030;-89
2022/02/14 15:53:20;;;;;;;5.13;1.88;;;9.60;99.90;;;;;;5028731;28;20072;-91
2022/02/14 15:55:55;;;;;;;5.20;1.58;;;9.50;99.90;;;;;;5027104;28;20053;-91
2022/02/14 15:58:27;;;;;;;7.07;1.60;;;9.50;99.90;;;;;;5032707;28;20085;-94
2022/02/14 16:00:53;;;;;;;4.13;1.30;;;9.40;99.90;;;;;;5030754;28;20018;-93
2022/02/14 16:03:19;;;;;;;7.75;1.65;;;9.30;99.90;;;;;;5033618;28;20039;-88
2022/02/14 16:05:52;;;;;;;5.40;1.60;;;9.30;99.90;;;;;;5032352;28;20033;-89
2022/02/14 16:08:18;;;;;;;5.38;1.67;;;9.40;99.90;;;;;;5032443;28;20037;-88
2022/02/14 16:10:44;;;;;;;5.00;1.55;;;9.40;99.90;;;;;;5045792;28;20086;-88
2022/02/14 16:13:19;;;;;;;4.40;1.50;;;9.40;99.90;;;;;;5011924;28;20136;-93
2022/02/14 16:15:45;;;;;;;5.43;1.40;;;9.40;99.90;;;;;;5027517;28;20045;-93
2022/02/14 16:18:14;;;;;;;5.80;1.58;;;9.50;99.90;;;;;;5025691;28;20041;-95
2022/02/14 16:20:51;;;;;;;5.70;1.27;;;9.50;99.90;;;;;;5032174;28;20022;-93
2022/02/14 16:23:18;;;;;;;8.15;1.52;;;9.50;99.90;;;;;;5032067;28;20037;-88
2022/02/14 16:25:46;;;;;;;6.28;1.45;;;9.50;99.90;;;;;;5053666;23;20050;-90
2022/02/14 16:28:12;;;;;;;4.70;1.40;;;9.50;99.90;;;;;;5009727;28;20041;-94
2022/02/14 16:30:39;;;;;;;4.75;1.40;;;9.50;99.90;;;;;;5012149;28;20030;-93
2022/02/14 16:33:12;;;;;;;4.47;1.40;;;9.50;99.90;;;;;;5017620;28;20029;-92
2022/02/14 16:35:41;;;;;;;5.43;1.85;;;9.50;99.90;;;;;;5030353;28;20097;-90
2022/02/14 16:38:09;;;;;;;8.13;1.60;;;9.40;99.90;;;;;;5010990;28;20046;-89
2022/02/14 16:40:34;;;;;;;5.65;1.70;;;9.30;99.90;;;;;;5013054;28;20030;-89
2022/02/14 16:43:03;;;;;;;7.40;1.70;;;9.30;99.90;;;;;;5028832;28;20030;-89
2022/02/14 16:45:29;;;;;;;3.88;1.23;;;9.20;99.90;;;;;;5026877;28;20030;-91
2022/02/14 16:47:55;;;;;;;4.78;1.40;;;9.20;99.90;;;;;;5002506;28;20148;-92
2022/02/14 16:50:21;;;;;;;4.30;1.20;;;9.20;99.90;;;;;;4999683;28;20037;-89
2022/02/14 16:52:50;;;;;;;6.60;1.40;;;9.20;99.90;;;;;;5001900;28;20038;-91
2022/02/14 16:55:18;;;;;;;5.38;1.48;;;9.20;99.90;;;;;;5005027;28;20500;-91
2022/02/14 16:57:45;;;;;;;6.07;1.45;;;9.20;99.90;;;;;;5017934;28;20148;-90
2022/02/14 17:00:18;;;;;;;4.63;1.60;;;9.20;99.90;;;;;;5005675;28;20053;-90
2022/02/14 17:02:44;;;;;;;3.53;1.33;;;9.20;99.90;;;;;;5005535;28;20098;-88
2022/02/14 17:05:13;;;;;;;7.60;1.85;;;9.20;99.90;;;;;;5009472;28;20277;-89
2022/02/14 17:07:44;;;;;;;8.10;2.00;;;9.30;99.90;;;;;;5005217;28;20181;-87
2022/02/14 17:10:11;;;;;;;4.05;1.30;;;9.30;99.90;;;;;;5025217;28;20112;-88
2022/02/14 17:12:37;;;;;;;8.85;1.75;;;9.30;99.90;;;;;;5025071;28;20030;-89
2022/02/14 17:15:03;;;;;;;4.95;1.50;;;9.30;99.90;;;;;;5018497;28;20072;-91
2022/02/14 17:17:30;;;;;;;6.60;1.60;;;9.30;99.90;;;;;;5011775;28;20152;-88
2022/02/14 17:19:56;;;;;;;6.40;1.40;;;9.30;99.90;;;;;;5010182;28;20140;-86
2022/02/14 17:22:21;;;;;;;5.70;1.65;;;9.40;99.90;;;;;;5007422;28;20696;-86
2022/02/14 17:24:47;;;;;;;9.80;1.90;;;9.30;99.90;;;;;;5024920;28;20066;-91
2022/02/14 17:27:13;;;;;;;5.05;1.60;;;9.10;99.90;;;;;;5047855;28;20032;-90
2022/02/14 17:29:39;;;;;;;4.70;1.27;;;8.70;99.90;;;;;;5032826;28;20028;-86
2022/02/14 17:32:05;;;;;;;5.70;1.80;;;8.40;99.90;;;;;;5029560;28;20101;-89
2022/02/14 17:34:30;;;;;;;4.03;1.50;;;8.20;99.90;;;;;;5031562;28;20030;-88
2022/02/14 17:36:57;;;;;;;6.60;1.70;;;8.10;99.90;;;;;;5033216;28;20037;-86
2022/02/14 17:39:45;;;;;;;6.43;1.65;;;8.00;99.90;;;;;;5032765;28;20037;-85
2022/02/14 17:42:12;;;;;;;7.43;1.40;;;7.90;99.90;;;;;;5060512;23;20054;-86
2022/02/14 17:44:41;;;;;;;4.93;1.75;;;7.80;99.90;;;;;;5024362;28;20057;-89
2022/02/14 17:47:07;;;;;;;10.38;2.38;;;7.70;99.90;;;;;;5006704;28;20040;-87
2022/02/14 17:49:36;;;;;;;5.18;1.40;;;7.70;99.90;;;;;;5024748;28;20046;-87
2022/02/14 17:52:03;;;;;;;4.43;1.70;;;7.60;99.90;;;;;;5001364;28;20034;-87
2022/02/14 17:54:29;;;;;;;5.47;1.92;;;7.60;99.90;;;;;;5020583;28;20052;-87
2022/02/14 17:56:58;;;;;;;8.40;2.22;;;7.60;99.90;;;;;;5006842;28;20034;-89
2022/02/14 17:59:28;;;;;;;5.25;2.20;;;7.60;99.90;;;;;;5026088;28;20046;-91
2022/02/14 18:01:54;;;;;;;7.32;1.95;;;7.60;99.90;;;;;;5004698;28;20049;-88
2022/02/14 18:04:20;;;;;;;5.47;1.70;;;7.60;99.90;;;;;;4998169;28;20034;-89
2022/02/14 18:06:50;;;;;;;7.25;2.63;;;7.60;99.90;;;;;;5000520;28;20022;-91
2022/02/14 18:09:16;;;;;;;9.48;1.80;;;7.60;99.90;;;;;;5014935;28;20022;-90
2022/02/14 18:11:47;;;;;;;7.90;2.40;;;7.60;99.90;;;;;;5001748;28;20034;-86
2022/02/14 18:14:13;;;;;;;4.47;1.73;;;7.70;99.90;;;;;;5018827;28;20049;-89
2022/02/14 18:16:39;;;;;;;6.40;2.00;;;7.70;99.90;;;;;;4997730;28;20025;-87
2022/02/14 18:19:07;;;;;;;5.10;1.95;;;7.70;99.90;;;;;;4998516;28;20050;-89
2022/02/14 18:21:33;;;;;;;8.57;2.13;;;7.70;99.90;;;;;;4995718;28;20098;-87
2022/02/14 18:24:02;;;;;;;6.95;1.95;;;7.80;99.90;;;;;;5013842;28;20041;-90
2022/02/14 18:26:29;;;;;;;7.65;1.92;;;7.90;99.90;;;;;;5016354;28;20487;-89
2022/02/14 18:29:02;;;;;;;6.72;1.90;;;8.00;99.90;;;;;;5014824;28;20057;-88
2022/02/14 18:31:30;;;;;;;9.05;1.92;;;8.00;99.90;;;;;;5011856;28;20070;-90
2022/02/14 18:33:56;;;;;;;10.02;2.67;;;8.00;99.90;;;;;;5013399;28;20034;-89
2022/02/14 18:36:22;;;;;;;5.03;1.70;;;8.10;99.90;;;;;;5013951;28;20037;-90